sensor_id;sensor_type;location;lat;lon;timestamp;pressure;altitude;pressure_sealevel;temperature
15709;BMP180;7954;51.914;8.420;2023-08-21T00:07:43;100976.59;;;26.08
15709;BMP180;7954;51.914;8.420;2023-08-21T00:10:13;100970.28;;;26.13
15709;BMP180;7954;51.914;8.420;2023-08-21T00:12:41;100975.34;;;26.05
15709;BMP180;7954;51.914;8.420;2023-08-21T00:15:09;100968.75;;;26.00
15709;BMP180;7954;51.914;8.420;2023-08-21T00:17:37;100971.91;;;25.97
15709;BMP180;7954;51.914;8.420;2023-08-21T00:20:06;100972.41;;;26.02
15709;BMP180;7954;51.914;8.420;2023-08-21T00:22:35;100983.16;;;25.98
15709;BMP180;7954;51.914;8.420;2023-08-21T00:25:06;100976.13;;;25.97
15709;BMP180;7954;51.914;8.420;2023-08-21T00:27:35;100975.22;;;25.96
15709;BMP180;7954;51.914;8.420;2023-08-21T00:30:03;100978.56;;;25.95
15709;BMP180;7954;51.914;8.420;2023-08-21T00:32:31;100967.28;;;25.95
15709;BMP180;7954;51.914;8.420;2023-08-21T00:34:59;100973.22;;;25.94
15709;BMP180;7954;51.914;8.420;2023-08-21T00:37:27;100965.28;;;25.93
15709;BMP180;7954;51.914;8.420;2023-08-21T00:39:55;100975.09;;;25.88
15709;BMP180;7954;51.914;8.420;2023-08-21T01:12:46;100992.22;;;25.65
15709;BMP180;7954;51.914;8.420;2023-08-21T01:15:16;100983.31;;;25.70
15709;BMP180;7954;51.914;8.420;2023-08-21T01:17:46;100983.84;;;25.75
15709;BMP180;7954;51.914;8.420;2023-08-21T01:20:15;100983.44;;;25.79
15709;BMP180;7954;51.914;8.420;2023-08-21T01:22:44;100979.56;;;25.82
15709;BMP180;7954;51.914;8.420;2023-08-21T01:25:15;100971.38;;;25.86
15709;BMP180;7954;51.914;8.420;2023-08-21T01:42:36;100983.81;;;25.31
15709;BMP180;7954;51.914;8.420;2023-08-21T01:45:06;100986.03;;;25.35
15709;BMP180;7954;51.914;8.420;2023-08-21T01:47:33;100983.78;;;25.45
15709;BMP180;7954;51.914;8.420;2023-08-21T01:50:01;100977.84;;;25.53
15709;BMP180;7954;51.914;8.420;2023-08-21T01:52:30;100983.00;;;25.60
15709;BMP180;7954;51.914;8.420;2023-08-21T01:54:58;100985.00;;;25.63
15709;BMP180;7954;51.914;8.420;2023-08-21T01:57:26;100989.25;;;25.62
15709;BMP180;7954;51.914;8.420;2023-08-21T01:59:56;100985.19;;;25.57
15709;BMP180;7954;51.914;8.420;2023-08-21T02:02:23;100992.44;;;25.53
15709;BMP180;7954;51.914;8.420;2023-08-21T02:04:52;100989.31;;;25.48
15709;BMP180;7954;51.914;8.420;2023-08-21T02:07:20;100988.56;;;25.49
15709;BMP180;7954;51.914;8.420;2023-08-21T02:09:48;100991.16;;;25.49
15709;BMP180;7954;51.914;8.420;2023-08-21T02:12:17;100994.16;;;25.45
15709;BMP180;7954;51.914;8.420;2023-08-21T02:14:45;100997.09;;;25.41
15709;BMP180;7954;51.914;8.420;2023-08-21T02:17:14;100986.75;;;25.41
15709;BMP180;7954;51.914;8.420;2023-08-21T02:41:48;100981.88;;;25.51
15709;BMP180;7954;51.914;8.420;2023-08-21T02:44:16;100989.66;;;25.51
15709;BMP180;7954;51.914;8.420;2023-08-21T02:46:44;100983.34;;;25.56
15709;BMP180;7954;51.914;8.420;2023-08-21T02:49:12;100983.34;;;25.56
15709;BMP180;7954;51.914;8.420;2023-08-21T02:51:40;100974.66;;;25.63
15709;BMP180;7954;51.914;8.420;2023-08-21T02:54:08;100982.56;;;25.71
15709;BMP180;7954;51.914;8.420;2023-08-21T02:56:36;100986.25;;;25.80
15709;BMP180;7954;51.914;8.420;2023-08-21T02:59:05;100986.81;;;25.78
15709;BMP180;7954;51.914;8.420;2023-08-21T03:01:33;100991.41;;;25.80
15709;BMP180;7954;51.914;8.420;2023-08-21T03:04:02;100985.69;;;25.76
15709;BMP180;7954;51.914;8.420;2023-08-21T03:06:30;100981.81;;;25.79
15709;BMP180;7954;51.914;8.420;2023-08-21T03:08:58;100981.75;;;25.86
15709;BMP180;7954;51.914;8.420;2023-08-21T03:11:27;100979.34;;;25.88
15709;BMP180;7954;51.914;8.420;2023-08-21T03:44:07;100973.47;;;25.31
15709;BMP180;7954;51.914;8.420;2023-08-21T03:46:35;100976.44;;;25.34
15709;BMP180;7954;51.914;8.420;2023-08-21T03:49:04;100972.72;;;25.39
15709;BMP180;7954;51.914;8.420;2023-08-21T03:51:32;100968.47;;;25.40
15709;BMP180;7954;51.914;8.420;2023-08-21T04:08:44;100985.50;;;25.24
15709;BMP180;7954;51.914;8.420;2023-08-21T04:11:12;100984.22;;;25.27
15709;BMP180;7954;51.914;8.420;2023-08-21T04:13:41;100986.78;;;25.34
15709;BMP180;7954;51.914;8.420;2023-08-21T04:34:35;101004.91;;;25.34
15709;BMP180;7954;51.914;8.420;2023-08-21T04:37:03;101004.91;;;25.34
15709;BMP180;7954;51.914;8.420;2023-08-21T04:39:31;101007.09;;;25.38
15709;BMP180;7954;51.914;8.420;2023-08-21T04:41:59;101005.78;;;25.42
15709;BMP180;7954;51.914;8.420;2023-08-21T04:44:30;101008.34;;;25.49
15709;BMP180;7954;51.914;8.420;2023-08-21T04:47:21;101012.94;;;25.58
15709;BMP180;7954;51.914;8.420;2023-08-21T04:49:53;101023.06;;;25.64
15709;BMP180;7954;51.914;8.420;2023-08-21T04:52:22;101031.59;;;25.56
15709;BMP180;7954;51.914;8.420;2023-08-21T04:54:50;101023.28;;;25.51
15709;BMP180;7954;51.914;8.420;2023-08-21T04:57:19;101016.66;;;25.46
15709;BMP180;7954;51.914;8.420;2023-08-21T04:59:48;101012.22;;;25.52
15709;BMP180;7954;51.914;8.420;2023-08-21T05:02:16;101003.31;;;25.57
15709;BMP180;7954;51.914;8.420;2023-08-21T05:04:44;100992.94;;;25.64
15709;BMP180;7954;51.914;8.420;2023-08-21T05:07:14;100984.78;;;25.68
15709;BMP180;7954;51.914;8.420;2023-08-21T05:09:42;101000.66;;;25.78
15709;BMP180;7954;51.914;8.420;2023-08-21T05:12:10;100999.50;;;25.90
15709;BMP180;7954;51.914;8.420;2023-08-21T05:14:39;101012.22;;;25.95
15709;BMP180;7954;51.914;8.420;2023-08-21T05:17:06;101008.44;;;25.78
15709;BMP180;7954;51.914;8.420;2023-08-21T05:49:53;101015.28;;;26.81
15709;BMP180;7954;51.914;8.420;2023-08-21T05:52:21;101021.81;;;27.00
15709;BMP180;7954;51.914;8.420;2023-08-21T05:54:50;101015.56;;;27.13
15709;BMP180;7954;51.914;8.420;2023-08-21T05:57:19;101019.72;;;27.35
15709;BMP180;7954;51.914;8.420;2023-08-21T05:59:47;101010.38;;;27.44
15709;BMP180;7954;51.914;8.420;2023-08-21T06:21:12;101009.31;;;27.73
15709;BMP180;7954;51.914;8.420;2023-08-21T06:23:40;101016.00;;;27.86
15709;BMP180;7954;51.914;8.420;2023-08-21T06:26:08;101015.50;;;28.05
15709;BMP180;7954;51.914;8.420;2023-08-21T06:28:37;101016.66;;;28.16
15709;BMP180;7954;51.914;8.420;2023-08-21T06:31:08;101015.97;;;28.25
15709;BMP180;7954;51.914;8.420;2023-08-21T06:33:36;101013.88;;;28.30
15709;BMP180;7954;51.914;8.420;2023-08-21T06:36:04;101009.19;;;28.34
15709;BMP180;7954;51.914;8.420;2023-08-21T06:38:33;101013.50;;;28.42
15709;BMP180;7954;51.914;8.420;2023-08-21T06:44:56;101019.81;;;28.76
15709;BMP180;7954;51.914;8.420;2023-08-21T06:47:41;101008.63;;;28.77
15709;BMP180;7954;51.914;8.420;2023-08-21T06:50:10;101013.34;;;28.73
15709;BMP180;7954;51.914;8.420;2023-08-21T07:07:44;101007.88;;;29.27
15709;BMP180;7954;51.914;8.420;2023-08-21T07:10:13;101015.75;;;29.36
15709;BMP180;7954;51.914;8.420;2023-08-21T07:12:41;101010.72;;;29.46
15709;BMP180;7954;51.914;8.420;2023-08-21T07:15:10;101013.75;;;29.50
15709;BMP180;7954;51.914;8.420;2023-08-21T07:17:38;101016.66;;;29.62
15709;BMP180;7954;51.914;8.420;2023-08-21T07:20:07;101016.22;;;29.57
15709;BMP180;7954;51.914;8.420;2023-08-21T07:59:25;101013.19;;;29.95
15709;BMP180;7954;51.914;8.420;2023-08-21T08:01:53;101003.38;;;30.01
15709;BMP180;7954;51.914;8.420;2023-08-21T08:04:22;101014.56;;;30.08
15709;BMP180;7954;51.914;8.420;2023-08-21T08:06:50;101008.09;;;30.22
15709;BMP180;7954;51.914;8.420;2023-08-21T08:09:18;101012.81;;;30.34
15709;BMP180;7954;51.914;8.420;2023-08-21T08:11:46;101014.63;;;30.52
15709;BMP180;7954;51.914;8.420;2023-08-21T08:14:14;101009.41;;;30.60
15709;BMP180;7954;51.914;8.420;2023-08-21T08:16:44;101008.41;;;30.77
15709;BMP180;7954;51.914;8.420;2023-08-21T08:19:12;100997.63;;;30.91
15709;BMP180;7954;51.914;8.420;2023-08-21T08:36:50;101007.75;;;31.87
15709;BMP180;7954;51.914;8.420;2023-08-21T08:42:58;101003.22;;;32.41
15709;BMP180;7954;51.914;8.420;2023-08-21T08:45:29;100989.78;;;32.46
15709;BMP180;7954;51.914;8.420;2023-08-21T08:48:00;100980.78;;;32.53
15709;BMP180;7954;51.914;8.420;2023-08-21T08:50:30;100987.41;;;32.49
15709;BMP180;7954;51.914;8.420;2023-08-21T08:53:00;100981.13;;;32.37
15709;BMP180;7954;51.914;8.420;2023-08-21T08:55:42;100985.91;;;32.33
15709;BMP180;7954;51.914;8.420;2023-08-21T09:13:19;100980.81;;;32.62
15709;BMP180;7954;51.914;8.420;2023-08-21T09:15:48;100976.19;;;32.98
15709;BMP180;7954;51.914;8.420;2023-08-21T10:00:00;100956.34;;;33.20
15709;BMP180;7954;51.914;8.420;2023-08-21T10:02:33;100962.72;;;33.24
15709;BMP180;7954;51.914;8.420;2023-08-21T10:05:02;100966.81;;;33.10
15709;BMP180;7954;51.914;8.420;2023-08-21T10:11:17;100962.47;;;33.21
15709;BMP180;7954;51.914;8.420;2023-08-21T10:13:48;100969.44;;;33.30
15709;BMP180;7954;51.914;8.420;2023-08-21T10:16:18;100961.69;;;33.41
15709;BMP180;7954;51.914;8.420;2023-08-21T10:18:49;100957.13;;;33.59
15709;BMP180;7954;51.914;8.420;2023-08-21T10:21:20;100965.09;;;33.70
15709;BMP180;7954;51.914;8.420;2023-08-21T10:39:00;100949.81;;;34.06
15709;BMP180;7954;51.914;8.420;2023-08-21T10:41:28;100942.41;;;34.22
15709;BMP180;7954;51.914;8.420;2023-08-21T11:09:44;100937.28;;;34.45
15709;BMP180;7954;51.914;8.420;2023-08-21T11:12:17;100924.13;;;34.55
15709;BMP180;7954;51.914;8.420;2023-08-21T11:14:45;100921.22;;;34.62
15709;BMP180;7954;51.914;8.420;2023-08-21T11:17:13;100922.22;;;34.63
15709;BMP180;7954;51.914;8.420;2023-08-21T11:31:20;100922.84;;;34.71
15709;BMP180;7954;51.914;8.420;2023-08-21T11:33:49;100927.47;;;34.63
15709;BMP180;7954;51.914;8.420;2023-08-21T11:48:02;100915.91;;;35.04
15709;BMP180;7954;51.914;8.420;2023-08-21T11:50:31;100911.03;;;35.09
15709;BMP180;7954;51.914;8.420;2023-08-21T11:52:59;100910.94;;;35.19
15709;BMP180;7954;51.914;8.420;2023-08-21T11:55:28;100922.25;;;35.29
15709;BMP180;7954;51.914;8.420;2023-08-21T11:57:57;100919.75;;;35.42
15709;BMP180;7954;51.914;8.420;2023-08-21T12:00:27;100923.16;;;35.51
15709;BMP180;7954;51.914;8.420;2023-08-21T12:02:56;100918.94;;;35.64
15709;BMP180;7954;51.914;8.420;2023-08-21T12:05:26;100917.28;;;35.78
15709;BMP180;7954;51.914;8.420;2023-08-21T12:07:55;100913.75;;;35.89
15709;BMP180;7954;51.914;8.420;2023-08-21T12:10:24;100918.03;;;35.98
15709;BMP180;7954;51.914;8.420;2023-08-21T12:12:52;100913.44;;;36.07
15709;BMP180;7954;51.914;8.420;2023-08-21T12:34:18;100906.81;;;38.21
15709;BMP180;7954;51.914;8.420;2023-08-21T12:36:46;100913.03;;;38.49
15709;BMP180;7954;51.914;8.420;2023-08-21T12:39:14;100900.50;;;38.86
15709;BMP180;7954;51.914;8.420;2023-08-21T12:41:44;100893.59;;;38.88
15709;BMP180;7954;51.914;8.420;2023-08-21T12:44:12;100896.25;;;39.44
15709;BMP180;7954;51.914;8.420;2023-08-21T12:46:40;100919.25;;;39.89
15709;BMP180;7954;51.914;8.420;2023-08-21T12:49:08;100909.03;;;40.87
15709;BMP180;7954;51.914;8.420;2023-08-21T12:51:38;100907.59;;;41.74
15709;BMP180;7954;51.914;8.420;2023-08-21T12:54:06;100908.56;;;43.01
15709;BMP180;7954;51.914;8.420;2023-08-21T12:56:36;100897.25;;;44.05
15709;BMP180;7954;51.914;8.420;2023-08-21T12:59:03;100890.44;;;45.00
15709;BMP180;7954;51.914;8.420;2023-08-21T13:01:31;100901.72;;;45.91
15709;BMP180;7954;51.914;8.420;2023-08-21T13:07:50;100901.53;;;46.95
15709;BMP180;7954;51.914;8.420;2023-08-21T13:10:19;100905.66;;;46.84
15709;BMP180;7954;51.914;8.420;2023-08-21T13:12:47;100875.31;;;47.14
15709;BMP180;7954;51.914;8.420;2023-08-21T13:15:16;100866.19;;;46.77
15709;BMP180;7954;51.914;8.420;2023-08-21T13:17:44;100904.78;;;47.45
15709;BMP180;7954;51.914;8.420;2023-08-21T13:20:13;100907.47;;;48.49
15709;BMP180;7954;51.914;8.420;2023-08-21T13:22:45;100901.56;;;49.49
15709;BMP180;7954;51.914;8.420;2023-08-21T13:25:18;100896.19;;;50.02
15709;BMP180;7954;51.914;8.420;2023-08-21T13:27:48;100905.28;;;50.66
15709;BMP180;7954;51.914;8.420;2023-08-21T13:30:17;100894.91;;;50.97
15709;BMP180;7954;51.914;8.420;2023-08-21T13:32:45;100868.06;;;49.34
15709;BMP180;7954;51.914;8.420;2023-08-21T13:35:15;100896.44;;;49.17
15709;BMP180;7954;51.914;8.420;2023-08-21T13:37:44;100914.75;;;49.39
15709;BMP180;7954;51.914;8.420;2023-08-21T13:40:14;100914.22;;;50.62
15709;BMP180;7954;51.914;8.420;2023-08-21T13:42:47;100895.03;;;51.06
15709;BMP180;7954;51.914;8.420;2023-08-21T13:45:17;100887.94;;;51.11
15709;BMP180;7954;51.914;8.420;2023-08-21T13:47:46;100913.81;;;51.76
15709;BMP180;7954;51.914;8.420;2023-08-21T13:50:17;100906.16;;;52.35
15709;BMP180;7954;51.914;8.420;2023-08-21T13:52:46;100867.28;;;51.13
15709;BMP180;7954;51.914;8.420;2023-08-21T13:55:15;100908.75;;;50.59
15709;BMP180;7954;51.914;8.420;2023-08-21T14:09:17;100909.63;;;52.14
15709;BMP180;7954;51.914;8.420;2023-08-21T14:11:45;100888.34;;;52.64
15709;BMP180;7954;51.914;8.420;2023-08-21T14:14:14;100892.19;;;53.21
15709;BMP180;7954;51.914;8.420;2023-08-21T14:16:41;100885.06;;;53.96
15709;BMP180;7954;51.914;8.420;2023-08-21T14:19:09;100874.16;;;54.32
15709;BMP180;7954;51.914;8.420;2023-08-21T14:21:37;100882.13;;;54.90
15709;BMP180;7954;51.914;8.420;2023-08-21T14:24:06;100886.34;;;55.37
15709;BMP180;7954;51.914;8.420;2023-08-21T14:26:35;100853.94;;;55.16
15709;BMP180;7954;51.914;8.420;2023-08-21T14:29:03;100842.44;;;52.73
15709;BMP180;7954;51.914;8.420;2023-08-21T14:31:31;100845.59;;;50.35
15709;BMP180;7954;51.914;8.420;2023-08-21T14:33:59;100839.00;;;48.71
15709;BMP180;7954;51.914;8.420;2023-08-21T14:36:27;100840.50;;;47.14
15709;BMP180;7954;51.914;8.420;2023-08-21T14:38:55;100847.97;;;45.82
15709;BMP180;7954;51.914;8.420;2023-08-21T14:41:23;100855.44;;;44.93
15709;BMP180;7954;51.914;8.420;2023-08-21T14:43:53;100908.97;;;45.69
15709;BMP180;7954;51.914;8.420;2023-08-21T14:46:21;100892.84;;;48.37
15709;BMP180;7954;51.914;8.420;2023-08-21T14:49:07;100839.03;;;49.63
15709;BMP180;7954;51.914;8.420;2023-08-21T14:51:35;100853.66;;;49.29
15709;BMP180;7954;51.914;8.420;2023-08-21T14:54:04;100851.50;;;49.57
15709;BMP180;7954;51.914;8.420;2023-08-21T14:56:32;100847.47;;;47.75
15709;BMP180;7954;51.914;8.420;2023-08-21T14:59:03;100898.84;;;47.58
15709;BMP180;7954;51.914;8.420;2023-08-21T15:01:31;100842.53;;;46.93
15709;BMP180;7954;51.914;8.420;2023-08-21T15:04:00;100853.38;;;45.59
15709;BMP180;7954;51.914;8.420;2023-08-21T15:06:28;100852.81;;;44.49
15709;BMP180;7954;51.914;8.420;2023-08-21T15:08:56;100859.94;;;43.85
15709;BMP180;7954;51.914;8.420;2023-08-21T15:11:24;100866.97;;;43.42
15709;BMP180;7954;51.914;8.420;2023-08-21T15:13:52;100858.53;;;42.94
15709;BMP180;7954;51.914;8.420;2023-08-21T15:16:22;100862.63;;;42.67
15709;BMP180;7954;51.914;8.420;2023-08-21T15:18:50;100862.31;;;42.61
15709;BMP180;7954;51.914;8.420;2023-08-21T15:21:19;100867.00;;;42.48
15709;BMP180;7954;51.914;8.420;2023-08-21T15:23:47;100864.38;;;43.04
15709;BMP180;7954;51.914;8.420;2023-08-21T15:26:14;100896.97;;;44.41
15709;BMP180;7954;51.914;8.420;2023-08-21T15:28:42;100837.94;;;45.01
15709;BMP180;7954;51.914;8.420;2023-08-21T15:31:11;100858.53;;;44.36
15709;BMP180;7954;51.914;8.420;2023-08-21T15:33:40;100871.47;;;44.06
15709;BMP180;7954;51.914;8.420;2023-08-21T15:36:08;100830.09;;;45.81
15709;BMP180;7954;51.914;8.420;2023-08-21T15:38:36;100838.94;;;44.81
15709;BMP180;7954;51.914;8.420;2023-08-21T15:41:04;100835.22;;;46.28
15709;BMP180;7954;51.914;8.420;2023-08-21T15:43:31;100867.78;;;48.00
15709;BMP180;7954;51.914;8.420;2023-08-21T15:46:02;100847.41;;;49.31
15709;BMP180;7954;51.914;8.420;2023-08-21T15:48:31;100841.75;;;50.18
15709;BMP180;7954;51.914;8.420;2023-08-21T15:51:01;100839.09;;;50.86
15709;BMP180;7954;51.914;8.420;2023-08-21T15:53:30;100840.59;;;51.40
15709;BMP180;7954;51.914;8.420;2023-08-21T15:55:57;100847.13;;;51.66
15709;BMP180;7954;51.914;8.420;2023-08-21T15:58:25;100833.84;;;51.88
15709;BMP180;7954;51.914;8.420;2023-08-21T16:00:56;100831.09;;;51.84
15709;BMP180;7954;51.914;8.420;2023-08-21T16:03:24;100835.47;;;51.70
15709;BMP180;7954;51.914;8.420;2023-08-21T16:05:52;100810.25;;;51.63
15709;BMP180;7954;51.914;8.420;2023-08-21T16:08:21;100817.63;;;50.92
15709;BMP180;7954;51.914;8.420;2023-08-21T16:10:49;100833.94;;;51.05
15709;BMP180;7954;51.914;8.420;2023-08-21T16:13:17;100819.53;;;51.03
15709;BMP180;7954;51.914;8.420;2023-08-21T16:15:45;100834.13;;;51.23
15709;BMP180;7954;51.914;8.420;2023-08-21T16:18:13;100835.69;;;51.05
15709;BMP180;7954;51.914;8.420;2023-08-21T16:20:41;100825.84;;;51.05
15709;BMP180;7954;51.914;8.420;2023-08-21T16:23:26;100831.38;;;51.17
15709;BMP180;7954;51.914;8.420;2023-08-21T16:25:54;100829.75;;;51.34
15709;BMP180;7954;51.914;8.420;2023-08-21T16:28:22;100827.06;;;51.37
15709;BMP180;7954;51.914;8.420;2023-08-21T16:30:51;100829.03;;;51.53
15709;BMP180;7954;51.914;8.420;2023-08-21T16:33:18;100823.97;;;50.29
15709;BMP180;7954;51.914;8.420;2023-08-21T16:35:47;100798.41;;;48.97
15709;BMP180;7954;51.914;8.420;2023-08-21T16:38:14;100831.84;;;47.92
15709;BMP180;7954;51.914;8.420;2023-08-21T16:40:44;100805.59;;;47.11
15709;BMP180;7954;51.914;8.420;2023-08-21T16:43:12;100827.69;;;47.04
15709;BMP180;7954;51.914;8.420;2023-08-21T16:45:41;100797.59;;;47.13
15709;BMP180;7954;51.914;8.420;2023-08-21T16:48:09;100803.97;;;46.85
15709;BMP180;7954;51.914;8.420;2023-08-21T16:50:37;100793.13;;;45.95
15709;BMP180;7954;51.914;8.420;2023-08-21T16:53:05;100785.97;;;44.91
15709;BMP180;7954;51.914;8.420;2023-08-21T16:55:49;100800.09;;;43.77
15709;BMP180;7954;51.914;8.420;2023-08-21T16:58:17;100796.22;;;42.89
15709;BMP180;7954;51.914;8.420;2023-08-21T17:00:45;100807.34;;;42.24
15709;BMP180;7954;51.914;8.420;2023-08-21T17:03:13;100807.31;;;41.70
15709;BMP180;7954;51.914;8.420;2023-08-21T17:05:41;100803.47;;;41.46
15709;BMP180;7954;51.914;8.420;2023-08-21T17:08:09;100800.63;;;41.09
15709;BMP180;7954;51.914;8.420;2023-08-21T17:10:37;100810.72;;;41.00
15709;BMP180;7954;51.914;8.420;2023-08-21T17:13:07;100805.00;;;41.08
15709;BMP180;7954;51.914;8.420;2023-08-21T17:15:35;100798.69;;;41.39
15709;BMP180;7954;51.914;8.420;2023-08-21T17:18:03;100796.00;;;42.09
15709;BMP180;7954;51.914;8.420;2023-08-21T17:20:33;100798.13;;;41.99
15709;BMP180;7954;51.914;8.420;2023-08-21T17:23:02;100791.31;;;42.22
15709;BMP180;7954;51.914;8.420;2023-08-21T17:25:30;100786.75;;;42.20
15709;BMP180;7954;51.914;8.420;2023-08-21T17:27:58;100784.00;;;41.63
15709;BMP180;7954;51.914;8.420;2023-08-21T17:30:28;100793.81;;;41.31
15709;BMP180;7954;51.914;8.420;2023-08-21T17:32:57;100778.94;;;42.04
15709;BMP180;7954;51.914;8.420;2023-08-21T17:35:26;100778.75;;;42.37
15709;BMP180;7954;51.914;8.420;2023-08-21T17:37:55;100768.75;;;42.51
15709;BMP180;7954;51.914;8.420;2023-08-21T17:40:24;100772.25;;;42.31
15709;BMP180;7954;51.914;8.420;2023-08-21T17:42:51;100773.06;;;42.11
15709;BMP180;7954;51.914;8.420;2023-08-21T17:45:19;100779.19;;;41.91
15709;BMP180;7954;51.914;8.420;2023-08-21T17:47:49;100773.16;;;41.08
15709;BMP180;7954;51.914;8.420;2023-08-21T17:50:17;100776.72;;;40.44
15709;BMP180;7954;51.914;8.420;2023-08-21T17:52:45;100787.75;;;39.89
15709;BMP180;7954;51.914;8.420;2023-08-21T17:55:13;100788.19;;;39.52
15709;BMP180;7954;51.914;8.420;2023-08-21T17:57:42;100784.03;;;39.12
15709;BMP180;7954;51.914;8.420;2023-08-21T18:00:11;100782.53;;;38.74
15709;BMP180;7954;51.914;8.420;2023-08-21T18:02:39;100785.06;;;38.31
15709;BMP180;7954;51.914;8.420;2023-08-21T18:05:09;100783.72;;;37.97
15709;BMP180;7954;51.914;8.420;2023-08-21T18:07:37;100792.63;;;37.72
15709;BMP180;7954;51.914;8.420;2023-08-21T18:10:07;100781.38;;;37.35
15709;BMP180;7954;51.914;8.420;2023-08-21T18:12:35;100796.81;;;37.05
15709;BMP180;7954;51.914;8.420;2023-08-21T18:15:04;100800.06;;;36.77
15709;BMP180;7954;51.914;8.420;2023-08-21T18:17:32;100804.41;;;36.63
15709;BMP180;7954;51.914;8.420;2023-08-21T18:20:00;100803.16;;;36.59
15709;BMP180;7954;51.914;8.420;2023-08-21T18:22:33;100796.94;;;36.45
15709;BMP180;7954;51.914;8.420;2023-08-21T18:25:01;100793.81;;;36.15
15709;BMP180;7954;51.914;8.420;2023-08-21T18:27:31;100800.16;;;35.83
15709;BMP180;7954;51.914;8.420;2023-08-21T18:29:59;100797.59;;;35.60
15709;BMP180;7954;51.914;8.420;2023-08-21T18:32:28;100803.84;;;35.39
15709;BMP180;7954;51.914;8.420;2023-08-21T18:34:57;100811.59;;;35.15
15709;BMP180;7954;51.914;8.420;2023-08-21T18:37:27;100801.06;;;34.92
15709;BMP180;7954;51.914;8.420;2023-08-21T18:39:57;100813.22;;;34.68
15709;BMP180;7954;51.914;8.420;2023-08-21T18:42:25;100811.00;;;34.52
15709;BMP180;7954;51.914;8.420;2023-08-21T18:44:53;100814.94;;;34.47
15709;BMP180;7954;51.914;8.420;2023-08-21T18:47:21;100808.16;;;34.39
15709;BMP180;7954;51.914;8.420;2023-08-21T18:49:53;100807.91;;;34.24
15709;BMP180;7954;51.914;8.420;2023-08-21T18:52:22;100809.16;;;34.08
15709;BMP180;7954;51.914;8.420;2023-08-21T18:54:49;100809.06;;;33.96
15709;BMP180;7954;51.914;8.420;2023-08-21T18:57:21;100814.25;;;33.85
15709;BMP180;7954;51.914;8.420;2023-08-21T18:59:49;100816.25;;;33.78
15709;BMP180;7954;51.914;8.420;2023-08-21T19:02:19;100818.25;;;33.70
15709;BMP180;7954;51.914;8.420;2023-08-21T19:04:47;100821.81;;;33.61
15709;BMP180;7954;51.914;8.420;2023-08-21T19:07:14;100811.22;;;33.49
15709;BMP180;7954;51.914;8.420;2023-08-21T19:09:43;100820.97;;;33.40
15709;BMP180;7954;51.914;8.420;2023-08-21T19:12:11;100824.13;;;33.36
15709;BMP180;7954;51.914;8.420;2023-08-21T19:14:40;100817.19;;;33.27
15709;BMP180;7954;51.914;8.420;2023-08-21T19:17:08;100811.06;;;33.17
15709;BMP180;7954;51.914;8.420;2023-08-21T19:19:36;100811.75;;;33.04
15709;BMP180;7954;51.914;8.420;2023-08-21T19:22:04;100822.34;;;32.96
15709;BMP180;7954;51.914;8.420;2023-08-21T19:24:33;100821.41;;;32.85
15709;BMP180;7954;51.914;8.420;2023-08-21T19:27:01;100822.22;;;32.74
15709;BMP180;7954;51.914;8.420;2023-08-21T19:29:30;100834.50;;;32.65
15709;BMP180;7954;51.914;8.420;2023-08-21T19:31:59;100839.50;;;32.62
15709;BMP180;7954;51.914;8.420;2023-08-21T19:34:28;100834.91;;;32.60
15709;BMP180;7954;51.914;8.420;2023-08-21T19:36:57;100834.91;;;32.60
15709;BMP180;7954;51.914;8.420;2023-08-21T19:39:26;100828.50;;;32.57
15709;BMP180;7954;51.914;8.420;2023-08-21T19:41:55;100840.38;;;32.53
15709;BMP180;7954;51.914;8.420;2023-08-21T19:44:24;100842.19;;;32.44
15709;BMP180;7954;51.914;8.420;2023-08-21T19:46:52;100830.91;;;32.35
15709;BMP180;7954;51.914;8.420;2023-08-21T19:49:21;100832.47;;;32.23
15709;BMP180;7954;51.914;8.420;2023-08-21T19:51:49;100835.72;;;32.21
15709;BMP180;7954;51.914;8.420;2023-08-21T19:54:18;100839.50;;;32.14
15709;BMP180;7954;51.914;8.420;2023-08-21T19:56:46;100831.00;;;32.07
15709;BMP180;7954;51.914;8.420;2023-08-21T19:59:16;100830.88;;;32.05
15709;BMP180;7954;51.914;8.420;2023-08-21T20:01:44;100832.91;;;31.99
15709;BMP180;7954;51.914;8.420;2023-08-21T20:04:12;100839.94;;;31.91
15709;BMP180;7954;51.914;8.420;2023-08-21T20:06:42;100841.88;;;31.83
15709;BMP180;7954;51.914;8.420;2023-08-21T20:09:10;100835.06;;;31.75
15709;BMP180;7954;51.914;8.420;2023-08-21T20:11:39;100828.50;;;31.70
15709;BMP180;7954;51.914;8.420;2023-08-21T20:14:07;100830.00;;;31.58
15709;BMP180;7954;51.914;8.420;2023-08-21T20:16:35;100841.59;;;31.52
15709;BMP180;7954;51.914;8.420;2023-08-21T20:19:03;100836.56;;;31.45
15709;BMP180;7954;51.914;8.420;2023-08-21T20:21:31;100844.88;;;31.41
15709;BMP180;7954;51.914;8.420;2023-08-21T20:24:01;100842.66;;;31.35
15709;BMP180;7954;51.914;8.420;2023-08-21T20:26:29;100837.78;;;31.30
15709;BMP180;7954;51.914;8.420;2023-08-21T20:29:00;100838.53;;;31.29
15709;BMP180;7954;51.914;8.420;2023-08-21T20:31:28;100836.56;;;31.26
15709;BMP180;7954;51.914;8.420;2023-08-21T20:33:56;100839.41;;;31.20
15709;BMP180;7954;51.914;8.420;2023-08-21T20:36:24;100839.63;;;31.13
15709;BMP180;7954;51.914;8.420;2023-08-21T20:38:52;100844.72;;;31.11
15709;BMP180;7954;51.914;8.420;2023-08-21T20:41:21;100841.59;;;31.15
15709;BMP180;7954;51.914;8.420;2023-08-21T20:43:49;100842.38;;;31.14
15709;BMP180;7954;51.914;8.420;2023-08-21T20:46:17;100842.53;;;30.97
15709;BMP180;7954;51.914;8.420;2023-08-21T20:48:45;100850.25;;;30.87
15709;BMP180;7954;51.914;8.420;2023-08-21T20:51:13;100853.03;;;30.80
15709;BMP180;7954;51.914;8.420;2023-08-21T20:53:42;100843.88;;;30.75
15709;BMP180;7954;51.914;8.420;2023-08-21T20:56:10;100857.41;;;30.71
15709;BMP180;7954;51.914;8.420;2023-08-21T20:58:40;100847.97;;;30.63
15709;BMP180;7954;51.914;8.420;2023-08-21T21:01:08;100854.13;;;30.56
15709;BMP180;7954;51.914;8.420;2023-08-21T21:03:36;100856.63;;;30.46
15709;BMP180;7954;51.914;8.420;2023-08-21T21:06:04;100843.19;;;30.33
15709;BMP180;7954;51.914;8.420;2023-08-21T21:08:32;100836.78;;;30.21
15709;BMP180;7954;51.914;8.420;2023-08-21T21:11:00;100846.50;;;30.13
15709;BMP180;7954;51.914;8.420;2023-08-21T21:13:28;100846.09;;;30.00
15709;BMP180;7954;51.914;8.420;2023-08-21T21:15:58;100841.81;;;29.92
15709;BMP180;7954;51.914;8.420;2023-08-21T21:18:26;100847.63;;;29.90